createdAt,value
2018-05-24T00:00:06.589Z,45.73
2018-05-24T00:02:32.952Z,45.62
2018-05-24T00:04:59.333Z,45.67
2018-05-24T00:07:25.683Z,45.73
2018-05-24T00:09:52.057Z,45.54
2018-05-24T00:12:18.475Z,45.68
2018-05-24T00:14:44.911Z,45.81
2018-05-24T00:17:11.234Z,45.61
2018-05-24T00:19:37.662Z,45.57
2018-05-24T00:22:04.021Z,45.45
2018-05-24T00:24:30.356Z,45.82
2018-05-24T00:26:56.724Z,45.92
2018-05-24T00:29:23.038Z,45.72
2018-05-24T00:31:49.582Z,45.54
2018-05-24T00:34:17.011Z,45.53
2018-05-24T00:36:43.398Z,45.80
2018-05-24T00:39:09.707Z,45.73
2018-05-24T00:41:36.257Z,45.71
2018-05-24T00:44:02.573Z,45.72
2018-05-24T00:46:28.947Z,45.88
2018-05-24T00:48:55.270Z,45.64
2018-05-24T00:51:21.667Z,45.74
2018-05-24T00:53:48.224Z,45.75
2018-05-24T00:56:14.542Z,45.97
2018-05-24T00:58:40.858Z,45.83
2018-05-24T01:01:07.185Z,45.88
2018-05-24T01:03:33.589Z,45.67
2018-05-24T01:05:59.982Z,45.68
2018-05-24T01:08:26.291Z,45.91
2018-05-24T01:10:52.611Z,45.99
2018-05-24T01:13:19.025Z,46.23
2018-05-24T01:15:45.457Z,46.31
2018-05-24T01:18:11.776Z,46.28
2018-05-24T01:20:38.088Z,46.35
2018-05-24T01:23:04.405Z,46.39
2018-05-24T01:25:30.770Z,46.35
2018-05-24T01:27:57.145Z,46.49
2018-05-24T01:30:23.574Z,46.67
2018-05-24T01:32:50.020Z,46.75
2018-05-24T01:35:16.443Z,46.77
2018-05-24T01:37:42.783Z,46.82
2018-05-24T01:40:09.108Z,46.74
2018-05-24T01:42:35.685Z,46.77
2018-05-24T01:45:02.079Z,46.93
2018-05-24T01:47:28.478Z,47.05
2018-05-24T01:49:54.809Z,47.14
2018-05-24T01:52:21.231Z,47.15
2018-05-24T01:54:47.639Z,47.32
2018-05-24T01:57:14.800Z,47.38
2018-05-24T01:59:41.129Z,47.34
2018-05-24T02:02:07.493Z,47.40
2018-05-24T02:04:34.160Z,47.37
2018-05-24T02:07:00.867Z,47.49
2018-05-24T02:09:27.229Z,47.34
2018-05-24T02:11:53.635Z,47.42
2018-05-24T02:14:19.970Z,47.50
2018-05-24T02:16:47.098Z,47.61
2018-05-24T02:19:13.435Z,47.56
2018-05-24T02:21:39.828Z,47.61
2018-05-24T02:24:06.205Z,47.53
2018-05-24T02:26:32.661Z,47.48
2018-05-24T02:28:59.102Z,47.64
2018-05-24T02:31:25.396Z,47.40
2018-05-24T02:33:51.833Z,47.46
2018-05-24T02:36:18.215Z,47.48
2018-05-24T02:38:44.832Z,47.51
2018-05-24T02:41:11.188Z,47.34
2018-05-24T02:43:37.596Z,47.50
2018-05-24T02:46:03.964Z,47.57
2018-05-24T02:48:30.604Z,47.47
2018-05-24T02:50:56.962Z,47.45
2018-05-24T02:53:23.305Z,47.42
2018-05-24T02:55:49.648Z,47.53
2018-05-24T02:58:16.096Z,47.60
2018-05-24T03:00:42.532Z,47.68
2018-05-24T03:03:08.920Z,47.52
2018-05-24T03:05:35.436Z,47.44
2018-05-24T03:08:01.853Z,47.47
2018-05-24T03:10:28.458Z,47.68
2018-05-24T03:12:54.921Z,47.46
2018-05-24T03:15:21.244Z,47.60
2018-05-24T03:17:47.650Z,47.59
2018-05-24T03:20:14.256Z,47.51
2018-05-24T03:22:40.596Z,47.56
2018-05-24T03:25:06.956Z,47.60
2018-05-24T03:27:33.281Z,47.67
2018-05-24T03:29:59.912Z,47.65
2018-05-24T03:32:26.372Z,47.63
2018-05-24T03:34:52.791Z,47.70
2018-05-24T03:37:19.210Z,47.79
2018-05-24T03:39:45.582Z,47.84
2018-05-24T03:42:11.991Z,47.79
2018-05-24T03:44:38.463Z,47.88
2018-05-24T03:47:04.801Z,47.76
2018-05-24T03:49:31.272Z,47.76
2018-05-24T03:51:57.673Z,47.92
2018-05-24T03:54:24.383Z,47.87
2018-05-24T03:56:50.886Z,47.83
2018-05-24T03:59:17.321Z,48.06
2018-05-24T04:01:44.149Z,48.00
2018-05-24T04:04:10.632Z,48.25
2018-05-24T04:06:36.965Z,48.24
2018-05-24T04:09:03.300Z,48.27
2018-05-24T04:11:29.823Z,48.34
2018-05-24T04:13:56.223Z,48.34
2018-05-24T04:16:22.708Z,48.41
2018-05-24T04:18:49.134Z,48.47
2018-05-24T04:21:16.296Z,48.38
2018-05-24T04:23:42.672Z,48.36
2018-05-24T04:26:09.142Z,48.53
2018-05-24T04:28:35.577Z,48.50
2018-05-24T04:31:02.089Z,48.58
2018-05-24T04:33:28.548Z,48.79
2018-05-24T04:35:54.895Z,48.60
2018-05-24T04:38:21.236Z,48.72
2018-05-24T04:40:47.618Z,48.69
2018-05-24T04:43:14.304Z,48.80
2018-05-24T04:45:40.799Z,48.79
2018-05-24T04:48:07.220Z,48.95
2018-05-24T04:50:33.877Z,48.87
2018-05-24T04:53:00.241Z,48.77
2018-05-24T04:55:26.711Z,48.90
2018-05-24T04:57:53.091Z,48.99
2018-05-24T05:00:20.669Z,48.97
2018-05-24T05:02:47.164Z,49.10
2018-05-24T05:05:14.380Z,49.15
2018-05-24T05:07:41.077Z,49.24
2018-05-24T05:10:07.413Z,49.31
2018-05-24T05:12:33.849Z,49.40
2018-05-24T05:15:00.327Z,49.48
2018-05-24T05:17:26.762Z,49.31
2018-05-24T05:19:53.127Z,49.31
2018-05-24T05:22:19.490Z,49.15
2018-05-24T05:24:47.231Z,49.20
2018-05-24T05:27:13.652Z,49.08
2018-05-24T05:29:40.073Z,49.18
2018-05-24T05:32:06.414Z,48.99
2018-05-24T05:34:33.020Z,48.95
2018-05-24T05:36:59.414Z,49.11
2018-05-24T05:39:25.603Z,49.07
2018-05-24T05:41:52.132Z,49.05
2018-05-24T05:44:18.462Z,49.08
2018-05-24T05:46:44.973Z,48.92
2018-05-24T05:49:11.444Z,48.98
2018-05-24T05:51:37.965Z,49.05
2018-05-24T05:54:04.284Z,48.95
2018-05-24T05:56:30.904Z,49.25
2018-05-24T05:58:57.305Z,48.96
2018-05-24T06:01:23.680Z,48.92
2018-05-24T06:03:50.057Z,48.79
2018-05-24T06:06:16.493Z,48.90
2018-05-24T06:08:42.828Z,48.98
2018-05-24T06:11:09.464Z,48.82
2018-05-24T06:13:35.992Z,48.81
2018-05-24T06:16:02.372Z,48.96
2018-05-24T06:18:28.774Z,48.81
2018-05-24T06:20:55.188Z,48.88
2018-05-24T06:23:21.808Z,48.76
2018-05-24T06:25:48.192Z,48.97
2018-05-24T06:28:14.732Z,48.87
2018-05-24T06:30:41.200Z,49.05
2018-05-24T06:33:07.611Z,48.94
2018-05-24T06:35:34.096Z,48.99
2018-05-24T06:38:00.458Z,49.02
2018-05-24T06:40:27.261Z,49.30
2018-05-24T06:42:53.645Z,48.91
2018-05-24T06:45:20.034Z,48.99
2018-05-24T06:47:46.436Z,49.18
2018-05-24T06:50:12.977Z,49.19
2018-05-24T06:52:39.311Z,49.27
2018-05-24T06:55:05.800Z,49.02
2018-05-24T06:57:32.423Z,49.00
2018-05-24T06:59:58.893Z,49.14
2018-05-24T07:02:25.251Z,49.05
2018-05-24T07:04:51.637Z,49.11
2018-05-24T07:07:18.162Z,49.21
2018-05-24T07:09:44.579Z,49.24
2018-05-24T07:12:10.948Z,49.07
2018-05-24T07:14:37.331Z,49.24
2018-05-24T07:17:03.822Z,49.18
2018-05-24T07:19:30.202Z,49.34
2018-05-24T07:21:56.527Z,49.15
2018-05-24T07:24:22.933Z,49.09
2018-05-24T07:26:49.271Z,49.16
2018-05-24T07:29:15.650Z,49.33
2018-05-24T07:31:42.128Z,49.08
2018-05-24T07:34:08.500Z,49.03
2018-05-24T07:36:34.829Z,49.50
2018-05-24T07:39:01.292Z,49.02
2018-05-24T07:41:27.624Z,48.98
2018-05-24T07:43:53.985Z,49.05
2018-05-24T07:46:20.315Z,49.01
2018-05-24T07:48:46.715Z,49.08
2018-05-24T07:51:13.042Z,49.27
2018-05-24T07:53:39.379Z,49.08
2018-05-24T07:56:05.704Z,48.92
2018-05-24T07:58:32.016Z,48.92
2018-05-24T08:00:58.365Z,49.05
2018-05-24T08:03:24.698Z,49.29
2018-05-24T08:05:51.048Z,49.50
2018-05-24T08:08:17.379Z,49.34
2018-05-24T08:10:43.696Z,49.22
2018-05-24T08:13:10.051Z,49.19
2018-05-24T08:15:36.388Z,49.27
2018-05-24T08:18:02.758Z,49.45
2018-05-24T08:20:29.152Z,49.25
2018-05-24T08:22:55.563Z,49.21
2018-05-24T08:25:22.090Z,49.31
2018-05-24T08:27:48.442Z,49.28
2018-05-24T08:30:14.937Z,49.51
2018-05-24T08:32:41.311Z,49.40
2018-05-24T08:35:07.709Z,49.27
2018-05-24T08:37:33.993Z,49.46
2018-05-24T08:40:00.365Z,49.24
2018-05-24T08:42:26.794Z,49.14
2018-05-24T08:44:53.156Z,49.18
2018-05-24T08:47:19.673Z,49.24
2018-05-24T08:49:46.057Z,49.32
2018-05-24T08:52:12.392Z,49.32
2018-05-24T08:54:38.713Z,49.28
2018-05-24T08:57:05.143Z,49.54
2018-05-24T08:59:31.492Z,49.32
2018-05-24T09:01:58.224Z,49.30
2018-05-24T09:04:24.642Z,49.34
2018-05-24T09:06:50.971Z,49.44
2018-05-24T09:09:17.328Z,49.40
2018-05-24T09:11:43.654Z,49.40
2018-05-24T09:14:09.981Z,49.31
2018-05-24T09:16:36.392Z,49.40
2018-05-24T09:19:02.708Z,49.36
2018-05-24T09:21:29.135Z,49.31
2018-05-24T09:23:55.457Z,49.44
2018-05-24T09:26:21.812Z,49.34
2018-05-24T09:28:48.132Z,49.37
2018-05-24T09:31:14.478Z,49.34
2018-05-24T09:33:40.797Z,49.39
2018-05-24T09:36:07.163Z,49.36
2018-05-24T09:38:33.699Z,49.58
2018-05-24T09:41:00.040Z,49.48
2018-05-24T09:43:26.432Z,49.48
2018-05-24T09:45:52.880Z,49.47
2018-05-24T09:48:19.214Z,49.55
2018-05-24T09:50:45.550Z,49.50
2018-05-24T09:53:11.859Z,49.64
2018-05-24T09:55:38.180Z,49.55
2018-05-24T09:58:04.532Z,49.71
2018-05-24T10:00:31.041Z,49.57
2018-05-24T10:02:57.438Z,49.43
2018-05-24T10:05:23.883Z,49.53
2018-05-24T10:07:50.322Z,49.35
2018-05-24T10:10:16.759Z,49.86
2018-05-24T10:12:43.113Z,50.06
2018-05-24T10:15:09.503Z,49.87
2018-05-24T10:17:35.874Z,50.00
2018-05-24T10:20:02.258Z,50.24
2018-05-24T10:22:28.735Z,50.30
2018-05-24T10:24:55.062Z,50.37
2018-05-24T10:27:21.391Z,50.30
2018-05-24T10:29:47.760Z,50.37
2018-05-24T10:32:14.075Z,50.58
2018-05-24T10:34:40.399Z,50.67
2018-05-24T10:37:06.761Z,50.93
2018-05-24T10:39:33.145Z,50.72
2018-05-24T10:41:59.618Z,51.15
2018-05-24T10:44:26.007Z,50.78
2018-05-24T10:46:52.380Z,50.96
2018-05-24T10:49:18.716Z,50.95
2018-05-24T10:51:45.088Z,50.79
2018-05-24T10:54:11.464Z,50.84
2018-05-24T10:56:37.918Z,50.95
2018-05-24T10:59:04.361Z,50.92
2018-05-24T11:01:30.925Z,50.84
2018-05-24T11:03:57.247Z,50.80
2018-05-24T11:06:23.677Z,50.72
2018-05-24T11:08:49.973Z,50.79
2018-05-24T11:11:16.325Z,50.71
2018-05-24T11:13:42.686Z,50.83
2018-05-24T11:16:09.059Z,50.71
2018-05-24T11:18:35.473Z,50.98
2018-05-24T11:21:01.973Z,50.97
2018-05-24T11:23:28.301Z,50.83
2018-05-24T11:25:54.660Z,51.12
2018-05-24T11:28:20.993Z,50.97
2018-05-24T11:30:47.345Z,50.98
2018-05-24T11:33:13.739Z,51.18
2018-05-24T11:35:40.110Z,51.15
2018-05-24T11:38:06.464Z,51.14
2018-05-24T11:40:32.859Z,51.31
2018-05-24T11:42:59.377Z,50.97
2018-05-24T11:45:25.680Z,51.35
2018-05-24T11:47:52.023Z,51.08
2018-05-24T11:50:18.350Z,51.21
2018-05-24T11:52:44.748Z,51.22
2018-05-24T11:55:11.144Z,51.38
2018-05-24T11:57:37.504Z,51.43
2018-05-24T12:00:03.888Z,51.55
2018-05-24T12:02:30.358Z,51.56
2018-05-24T12:04:56.747Z,51.60
2018-05-24T12:07:23.150Z,51.77
2018-05-24T12:09:49.477Z,51.74
2018-05-24T12:12:15.856Z,51.70
2018-05-24T12:14:42.253Z,51.63
2018-05-24T12:17:08.613Z,51.84
2018-05-24T12:19:34.949Z,51.80
2018-05-24T12:22:01.301Z,51.86
2018-05-24T12:24:27.624Z,52.06
2018-05-24T12:26:54.005Z,52.02
2018-05-24T12:29:20.352Z,52.08
2018-05-24T12:31:46.718Z,52.25
2018-05-24T12:34:13.148Z,52.22
2018-05-24T12:36:39.466Z,52.33
2018-05-24T12:39:05.861Z,52.37
2018-05-24T12:41:32.212Z,52.36
2018-05-24T12:43:58.532Z,52.49
2018-05-24T12:46:24.860Z,52.57
2018-05-24T12:48:51.419Z,52.74
2018-05-24T12:51:17.755Z,53.00
2018-05-24T12:53:44.207Z,52.88
2018-05-24T12:56:10.528Z,53.01
2018-05-24T12:58:36.897Z,53.05
2018-05-24T13:01:03.215Z,52.95
2018-05-24T13:03:29.587Z,53.00
2018-05-24T13:05:55.910Z,52.97
2018-05-24T13:08:22.296Z,53.21
2018-05-24T13:10:48.631Z,53.45
2018-05-24T13:13:15.091Z,53.20
2018-05-24T13:15:41.431Z,53.38
2018-05-24T13:18:07.814Z,53.47
2018-05-24T13:20:34.164Z,53.62
2018-05-24T13:23:00.599Z,53.46
2018-05-24T13:25:27.010Z,53.51
2018-05-24T13:27:53.335Z,53.76
2018-05-24T13:30:19.758Z,53.86
2018-05-24T13:32:46.272Z,53.78
2018-05-24T13:35:12.614Z,53.75
2018-05-24T13:37:39.059Z,54.06
2018-05-24T13:40:05.430Z,53.71
2018-05-24T13:42:31.839Z,53.84
2018-05-24T13:44:58.202Z,53.93
2018-05-24T13:47:24.623Z,54.07
2018-05-24T13:49:50.986Z,54.17
2018-05-24T13:52:17.304Z,54.01
2018-05-24T13:54:43.853Z,53.96
2018-05-24T13:57:10.270Z,54.07
2018-05-24T13:59:36.672Z,53.78
2018-05-24T14:02:03.089Z,53.57
2018-05-24T14:04:29.567Z,53.40
2018-05-24T14:06:56.028Z,53.19
2018-05-24T14:09:22.469Z,52.96
2018-05-24T14:11:48.922Z,52.78
2018-05-24T14:14:15.248Z,52.62
2018-05-24T14:16:41.663Z,52.49
2018-05-24T14:19:08.032Z,52.23
2018-05-24T14:21:34.363Z,51.97
2018-05-24T14:24:00.708Z,51.82
2018-05-24T14:26:27.060Z,51.79
2018-05-24T14:28:53.396Z,51.62
2018-05-24T14:31:19.724Z,51.43
2018-05-24T14:33:46.109Z,51.30
2018-05-24T14:36:12.449Z,51.33
2018-05-24T14:38:38.838Z,51.06
2018-05-24T14:41:05.160Z,51.01
2018-05-24T14:43:31.507Z,50.92
2018-05-24T14:45:57.843Z,50.84
2018-05-24T14:48:24.205Z,50.74
2018-05-24T14:50:50.535Z,50.61
2018-05-24T14:53:16.939Z,50.43
2018-05-24T14:55:43.297Z,50.30
2018-05-24T14:58:09.661Z,50.21
2018-05-24T15:00:36.067Z,50.15
2018-05-24T15:03:02.435Z,50.26
2018-05-24T15:05:28.921Z,50.10
2018-05-24T15:07:55.347Z,50.16
2018-05-24T15:10:21.883Z,50.07
2018-05-24T15:12:48.324Z,49.99
2018-05-24T15:15:14.708Z,49.94
2018-05-24T15:17:41.026Z,49.90
2018-05-24T15:20:07.405Z,49.87
2018-05-24T15:22:33.774Z,49.89
2018-05-24T15:25:00.123Z,49.71
2018-05-24T15:27:26.498Z,49.76
2018-05-24T15:29:52.832Z,49.63
2018-05-24T15:32:19.158Z,49.65
2018-05-24T15:34:45.514Z,49.58
2018-05-24T15:37:11.836Z,49.75
2018-05-24T15:39:38.159Z,49.66
2018-05-24T15:42:04.530Z,49.59
2018-05-24T15:44:30.932Z,49.65
2018-05-24T15:46:57.302Z,49.60
2018-05-24T15:49:23.624Z,49.52
2018-05-24T15:51:50.031Z,49.68
2018-05-24T15:54:16.373Z,49.54
2018-05-24T15:56:42.746Z,49.51
2018-05-24T15:59:09.099Z,49.68
2018-05-24T16:01:35.413Z,49.67
2018-05-24T16:04:01.774Z,49.76
2018-05-24T16:06:28.119Z,49.94
2018-05-24T16:08:54.505Z,49.87
2018-05-24T16:11:20.837Z,50.03
2018-05-24T16:13:47.159Z,49.99
2018-05-24T16:16:13.480Z,50.05
2018-05-24T16:18:39.828Z,50.25
2018-05-24T16:21:06.189Z,50.11
2018-05-24T16:23:32.518Z,50.30
2018-05-24T16:25:58.873Z,50.34
2018-05-24T16:28:25.241Z,50.44
2018-05-24T16:30:51.713Z,50.49
2018-05-24T16:33:18.072Z,50.34
2018-05-24T16:35:44.447Z,50.56
2018-05-24T16:38:10.807Z,50.58
2018-05-24T16:40:37.141Z,50.68
2018-05-24T16:43:03.560Z,50.69
2018-05-24T16:45:30.117Z,50.78
2018-05-24T16:47:56.568Z,50.89
2018-05-24T16:50:23.060Z,50.84
2018-05-24T16:52:49.424Z,50.81
2018-05-24T16:55:15.884Z,50.89
2018-05-24T16:57:42.365Z,51.04
2018-05-24T17:00:08.957Z,51.04
2018-05-24T17:02:35.436Z,51.27
2018-05-24T17:05:01.787Z,51.47
2018-05-24T17:07:28.216Z,51.36
2018-05-24T17:09:54.584Z,51.38
2018-05-24T17:12:20.952Z,51.41
2018-05-24T17:14:47.264Z,51.44
2018-05-24T17:17:13.633Z,51.56
2018-05-24T17:19:39.956Z,51.56
2018-05-24T17:22:06.383Z,51.61
2018-05-24T17:24:32.740Z,51.62
2018-05-24T17:26:59.108Z,51.67
2018-05-24T17:29:25.453Z,51.71
2018-05-24T17:31:51.825Z,51.75
2018-05-24T17:34:18.183Z,51.81
2018-05-24T17:36:44.569Z,51.83
2018-05-24T17:39:10.895Z,51.85
2018-05-24T17:41:37.300Z,51.84
2018-05-24T17:44:03.749Z,51.95
2018-05-24T17:46:30.147Z,51.91
2018-05-24T17:48:56.498Z,52.00
2018-05-24T17:51:22.893Z,51.86
2018-05-24T17:53:49.345Z,51.99
2018-05-24T17:56:15.739Z,52.01
2018-05-24T17:58:42.111Z,52.04
2018-05-24T18:01:08.573Z,52.02
2018-05-24T18:03:34.899Z,52.07
2018-05-24T18:06:01.237Z,52.11
2018-05-24T18:08:27.649Z,52.14
2018-05-24T18:10:54.116Z,52.22
2018-05-24T18:13:20.453Z,52.19
2018-05-24T18:15:46.781Z,52.17
2018-05-24T18:18:13.145Z,52.11
2018-05-24T18:20:39.491Z,52.00
2018-05-24T18:23:05.860Z,51.84
2018-05-24T18:25:32.228Z,51.69
2018-05-24T18:27:58.577Z,51.50
2018-05-24T18:30:24.912Z,51.50
2018-05-24T18:32:51.275Z,51.28
2018-05-24T18:35:17.603Z,50.87
2018-05-24T18:37:44.005Z,50.80
2018-05-24T18:40:10.361Z,50.63
2018-05-24T18:42:36.728Z,50.34
2018-05-24T18:45:03.198Z,50.63
2018-05-24T18:47:29.540Z,50.30
2018-05-24T18:49:55.998Z,50.23
2018-05-24T18:52:22.375Z,49.99
2018-05-24T18:54:48.897Z,49.98
2018-05-24T18:57:15.236Z,49.89
2018-05-24T18:59:41.600Z,49.92
2018-05-24T19:02:08.069Z,49.94
2018-05-24T19:04:34.390Z,49.86
2018-05-24T19:07:00.752Z,49.84
2018-05-24T19:09:27.146Z,50.08
2018-05-24T19:11:53.481Z,50.11
2018-05-24T19:14:19.812Z,50.47
2018-05-24T19:16:46.172Z,50.58
2018-05-24T19:19:12.503Z,50.77
2018-05-24T19:21:38.876Z,50.86
2018-05-24T19:24:05.273Z,51.01
2018-05-24T19:26:31.826Z,51.26
2018-05-24T19:28:58.217Z,51.36
2018-05-24T19:31:24.544Z,51.58
2018-05-24T19:33:50.917Z,51.58
2018-05-24T19:36:17.232Z,51.56
2018-05-24T19:38:43.579Z,51.66
2018-05-24T19:41:09.896Z,51.66
2018-05-24T19:43:36.207Z,51.74
2018-05-24T19:46:02.602Z,51.88
2018-05-24T19:48:29.017Z,51.89
2018-05-24T19:50:55.378Z,52.04
2018-05-24T19:53:21.701Z,52.07
2018-05-24T19:55:48.062Z,52.07
2018-05-24T19:58:14.417Z,52.14
2018-05-24T20:00:40.835Z,52.21
2018-05-24T20:03:07.181Z,52.24
2018-05-24T20:05:33.571Z,52.29
2018-05-24T20:07:59.904Z,52.32
2018-05-24T20:10:26.273Z,52.35
2018-05-24T20:12:52.630Z,52.43
2018-05-24T20:15:18.953Z,52.48
2018-05-24T20:17:45.346Z,52.46
2018-05-24T20:20:11.687Z,52.43
2018-05-24T20:22:38.092Z,52.37
2018-05-24T20:25:04.400Z,52.44
2018-05-24T20:27:30.780Z,52.55
2018-05-24T20:29:57.188Z,52.62
2018-05-24T20:32:23.469Z,52.53
2018-05-24T20:34:49.884Z,52.49
2018-05-24T20:37:16.383Z,52.49
2018-05-24T20:39:42.708Z,52.56
2018-05-24T20:42:09.063Z,52.57
2018-05-24T20:44:35.421Z,52.53
2018-05-24T20:47:01.774Z,52.61
2018-05-24T20:49:28.119Z,52.53
2018-05-24T20:51:54.432Z,52.59
2018-05-24T20:54:20.799Z,52.59
2018-05-24T20:56:47.271Z,52.57
2018-05-24T20:59:13.903Z,52.66
2018-05-24T21:01:40.229Z,52.56
2018-05-24T21:04:06.540Z,52.62
2018-05-24T21:06:33.013Z,52.59
2018-05-24T21:08:59.351Z,52.57
2018-05-24T21:11:25.710Z,52.64
2018-05-24T21:13:52.087Z,52.62
2018-05-24T21:16:18.475Z,52.64
2018-05-24T21:18:44.856Z,52.56
2018-05-24T21:21:11.183Z,52.46
2018-05-24T21:23:37.509Z,52.54
2018-05-24T21:26:03.880Z,52.65
2018-05-24T21:28:30.241Z,52.49
2018-05-24T21:30:56.698Z,52.45
2018-05-24T21:33:23.238Z,52.35
2018-05-24T21:35:49.566Z,52.48
2018-05-24T21:38:15.935Z,52.45
2018-05-24T21:40:42.258Z,52.46
2018-05-24T21:43:08.611Z,52.41
2018-05-24T21:45:34.938Z,52.35
2018-05-24T21:48:01.320Z,52.35
2018-05-24T21:50:27.753Z,52.39
2018-05-24T21:52:54.108Z,52.30
2018-05-24T21:55:20.424Z,52.54
2018-05-24T21:57:46.812Z,52.39
2018-05-24T22:00:13.140Z,52.37
2018-05-24T22:02:39.463Z,52.28
2018-05-24T22:05:05.788Z,52.27
2018-05-24T22:07:32.186Z,52.33
2018-05-24T22:09:58.574Z,52.31
2018-05-24T22:12:24.895Z,52.24
2018-05-24T22:14:51.222Z,52.25
2018-05-24T22:17:17.624Z,52.25
2018-05-24T22:19:43.948Z,52.16
2018-05-24T22:22:10.309Z,52.27
2018-05-24T22:24:36.636Z,52.33
2018-05-24T22:27:02.957Z,52.31
2018-05-24T22:29:29.413Z,52.36
2018-05-24T22:31:55.744Z,52.21
2018-05-24T22:34:22.076Z,52.18
2018-05-24T22:36:48.403Z,52.20
2018-05-24T22:39:14.767Z,52.29
2018-05-24T22:41:41.091Z,52.16
2018-05-24T22:44:07.402Z,52.34
2018-05-24T22:46:33.780Z,52.24
2018-05-24T22:49:00.136Z,52.18
2018-05-24T22:51:26.500Z,52.13
2018-05-24T22:53:52.832Z,52.16
2018-05-24T22:56:19.150Z,52.13
2018-05-24T22:58:45.476Z,52.17
2018-05-24T23:01:11.834Z,52.11
2018-05-24T23:03:38.165Z,52.14
2018-05-24T23:06:04.488Z,52.24
2018-05-24T23:08:31.002Z,52.14
2018-05-24T23:10:57.377Z,52.10
2018-05-24T23:13:23.707Z,52.15
2018-05-24T23:15:50.033Z,52.16
2018-05-24T23:18:16.356Z,51.98
2018-05-24T23:20:42.708Z,51.96
2018-05-24T23:23:09.040Z,52.01
2018-05-24T23:25:35.449Z,52.06
2018-05-24T23:28:01.903Z,52.01
2018-05-24T23:30:28.341Z,52.02
2018-05-24T23:32:54.705Z,51.91
2018-05-24T23:35:21.033Z,51.90
2018-05-24T23:37:47.375Z,52.05
2018-05-24T23:40:13.705Z,52.02
2018-05-24T23:42:40.033Z,52.01
2018-05-24T23:45:06.389Z,51.94
2018-05-24T23:47:32.892Z,51.92
2018-05-24T23:49:59.224Z,51.94
2018-05-24T23:52:25.532Z,51.98
2018-05-24T23:54:51.920Z,52.01
2018-05-24T23:57:18.244Z,51.93
2018-05-24T23:59:44.591Z,51.88
